createdAt,value
2023-02-04T04:02:06.865Z,6.85
2023-02-04T04:05:16.622Z,6.87
2023-02-04T04:08:26.577Z,6.84
2023-02-04T04:11:36.187Z,6.86
2023-02-04T04:14:45.868Z,6.87
2023-02-04T04:17:56.769Z,6.92
2023-02-04T04:21:06.609Z,6.93
2023-02-04T04:24:16.208Z,6.93
2023-02-04T04:27:25.977Z,6.92
2023-02-04T04:30:35.565Z,6.88
2023-02-04T04:33:46.464Z,6.83
2023-02-04T04:36:56.072Z,6.78
2023-02-04T04:40:06.859Z,6.77
2023-02-04T04:43:16.439Z,6.78
2023-02-04T04:46:26.091Z,6.73
2023-02-04T04:49:37.014Z,6.69
2023-02-04T04:52:46.672Z,6.71
2023-02-04T04:55:56.286Z,6.75
2023-02-04T04:59:06.025Z,6.71
2023-02-04T05:02:15.543Z,6.71
2023-02-04T05:05:26.565Z,6.67
2023-02-04T05:08:36.675Z,6.66
2023-02-04T05:11:47.805Z,6.68
2023-02-04T05:14:57.537Z,6.66
2023-02-04T05:18:07.346Z,6.66
2023-02-04T05:21:18.161Z,6.69
2023-02-04T05:24:28.010Z,6.69
2023-02-04T05:27:37.671Z,6.70
2023-02-04T05:30:47.386Z,6.69
2023-02-04T05:33:57.084Z,6.67
2023-02-04T05:37:07.986Z,6.67
2023-02-04T05:40:17.792Z,6.69
2023-02-04T05:43:27.770Z,6.68
2023-02-04T05:46:38.428Z,6.66
2023-02-04T05:49:48.038Z,6.68
2023-02-04T05:52:58.931Z,6.68
2023-02-04T05:56:08.706Z,6.69
2023-02-04T05:59:18.540Z,6.68
2023-02-04T06:02:31.507Z,6.68
2023-02-04T06:05:41.364Z,6.68
2023-02-04T06:08:52.371Z,6.63
2023-02-04T06:12:02.181Z,6.59
2023-02-04T06:15:12.916Z,6.53
2023-02-04T06:18:22.589Z,6.52
2023-02-04T06:21:32.306Z,6.50
2023-02-04T06:24:43.090Z,6.49
2023-02-04T06:27:52.832Z,6.49
2023-02-04T06:31:02.619Z,6.42
2023-02-04T06:34:12.299Z,6.45
2023-02-04T06:37:24.253Z,6.48
2023-02-04T06:40:35.333Z,6.45
2023-02-04T06:43:44.894Z,6.46
2023-02-04T06:46:54.908Z,6.43
2023-02-04T06:50:04.727Z,6.41
2023-02-04T06:53:14.348Z,6.41
2023-02-04T06:56:26.842Z,6.45
2023-02-04T06:59:37.485Z,6.46
2023-02-04T07:02:47.103Z,6.47
2023-02-04T07:05:56.800Z,6.46
2023-02-04T07:09:06.347Z,6.45
2023-02-04T07:12:17.343Z,6.42
2023-02-04T07:15:27.028Z,6.40
2023-02-04T07:18:37.193Z,6.41
2023-02-04T07:21:46.764Z,6.37
2023-02-04T07:24:56.472Z,6.36
2023-02-04T07:28:07.512Z,6.37
2023-02-04T07:31:17.292Z,6.34
2023-02-04T07:34:26.890Z,6.37
2023-02-04T07:37:36.503Z,6.41
2023-02-04T07:40:46.084Z,6.46
2023-02-04T07:43:57.231Z,6.51
2023-02-04T07:47:06.844Z,6.58
2023-02-04T07:50:17.313Z,6.57
2023-02-04T07:53:26.942Z,6.61
2023-02-04T07:56:36.684Z,6.69
2023-02-04T07:59:47.569Z,6.74
2023-02-04T08:02:57.208Z,6.83
2023-02-04T08:06:07.007Z,6.91
2023-02-04T08:09:16.730Z,6.92
2023-02-04T08:12:26.280Z,6.93
2023-02-04T08:15:37.453Z,6.95
2023-02-04T08:18:47.006Z,7.02
2023-02-04T08:21:56.833Z,7.07
2023-02-04T08:25:06.736Z,7.09
2023-02-04T08:28:16.485Z,7.15
2023-02-04T08:31:27.444Z,7.18
2023-02-04T08:34:37.174Z,7.24
2023-02-04T08:37:46.740Z,7.29
2023-02-04T08:40:56.332Z,7.38
2023-02-04T08:44:06.358Z,7.50
2023-02-04T08:47:17.356Z,7.60
2023-02-04T08:50:28.717Z,7.71
2023-02-04T08:53:40.653Z,7.82
2023-02-04T08:56:50.236Z,7.97
2023-02-04T08:59:59.905Z,8.11
2023-02-04T09:03:10.798Z,8.31
2023-02-04T09:06:20.583Z,8.49
2023-02-04T09:09:30.255Z,8.70
2023-02-04T09:12:39.876Z,8.78
2023-02-04T09:15:49.450Z,8.90
2023-02-04T09:19:01.780Z,8.93
2023-02-04T09:22:13.157Z,9.06
2023-02-04T09:25:23.123Z,9.20
2023-02-04T09:28:33.010Z,9.47
2023-02-04T09:31:42.762Z,9.64
2023-02-04T09:34:53.655Z,9.64
2023-02-04T09:38:03.482Z,9.62
2023-02-04T09:41:14.310Z,9.41
2023-02-04T09:44:27.488Z,9.17
2023-02-04T09:47:37.498Z,9.00
2023-02-04T09:50:49.369Z,8.97
2023-02-04T09:54:09.731Z,8.96
2023-02-04T09:57:21.410Z,9.04
2023-02-04T10:00:32.852Z,9.24
2023-02-04T10:03:46.691Z,9.19
2023-02-04T10:06:58.823Z,9.13
2023-02-04T10:10:17.058Z,9.15
2023-02-04T10:13:32.246Z,9.13
2023-02-04T10:16:45.036Z,9.11
2023-02-04T10:19:54.690Z,9.04
2023-02-04T10:23:05.622Z,9.29
2023-02-04T10:26:16.458Z,9.70
2023-02-04T10:29:26.521Z,10.14
2023-02-04T10:32:36.179Z,10.36
2023-02-04T10:35:47.634Z,10.81
2023-02-04T10:39:02.211Z,11.06
2023-02-04T10:42:22.495Z,11.07
2023-02-04T10:45:32.956Z,10.93
2023-02-04T10:48:43.263Z,10.62
2023-02-04T10:51:53.820Z,10.38
2023-02-04T10:55:08.207Z,10.17
2023-02-04T10:58:25.647Z,9.93
2023-02-04T11:01:35.506Z,9.78
2023-02-04T11:04:45.081Z,9.66
2023-02-04T11:07:54.697Z,9.63
2023-02-04T11:11:08.460Z,9.64
2023-02-04T11:14:24.988Z,9.70
2023-02-04T11:17:36.135Z,10.02
2023-02-04T11:20:45.729Z,10.64
2023-02-04T11:24:07.449Z,11.61
2023-02-04T11:27:25.187Z,12.45
2023-02-04T11:30:34.903Z,12.87
2023-02-04T11:33:45.028Z,13.12
2023-02-04T11:36:59.240Z,12.88
2023-02-04T11:40:23.399Z,13.18
2023-02-04T11:43:37.397Z,13.08
2023-02-04T11:46:55.353Z,12.54
2023-02-04T11:50:14.181Z,12.07
2023-02-04T11:53:25.813Z,11.51
2023-02-04T11:56:35.357Z,11.09
2023-02-04T11:59:46.332Z,10.85
2023-02-04T12:02:59.070Z,10.98
2023-02-04T12:06:09.068Z,10.94
2023-02-04T12:09:26.134Z,10.94
2023-02-04T12:12:44.500Z,10.93
2023-02-04T12:16:00.680Z,10.77
2023-02-04T12:19:10.405Z,10.46
2023-02-04T12:22:19.996Z,10.45
2023-02-04T12:25:30.438Z,10.45
2023-02-04T12:28:40.308Z,10.51
2023-02-04T12:31:51.423Z,10.78
2023-02-04T12:35:01.047Z,11.29
2023-02-04T12:38:11.180Z,11.80
2023-02-04T12:41:20.805Z,12.10
2023-02-04T12:44:30.460Z,12.21
2023-02-04T12:47:42.417Z,12.04
2023-02-04T12:50:52.081Z,12.09
2023-02-04T12:54:01.741Z,11.97
2023-02-04T12:57:11.858Z,11.99
2023-02-04T13:00:22.276Z,11.58
2023-02-04T13:03:33.620Z,11.05
2023-02-04T13:06:43.227Z,10.96
2023-02-04T13:09:53.307Z,10.90
2023-02-04T13:13:04.670Z,10.80
2023-02-04T13:16:14.565Z,10.89
2023-02-04T13:19:25.517Z,10.94
2023-02-04T13:22:35.185Z,10.81
2023-02-04T13:25:45.115Z,10.76
2023-02-04T13:28:54.825Z,10.66
2023-02-04T13:32:04.583Z,10.74
2023-02-04T13:35:15.707Z,10.85
2023-02-04T13:38:25.887Z,10.83
2023-02-04T13:41:36.265Z,10.87
2023-02-04T13:44:45.980Z,10.86
2023-02-04T13:47:55.633Z,10.65
2023-02-04T13:51:06.611Z,10.48
2023-02-04T13:54:16.390Z,10.36
2023-02-04T13:57:25.982Z,10.34
2023-02-04T14:00:35.817Z,10.38
2023-02-04T14:03:46.497Z,10.47
2023-02-04T14:06:57.779Z,10.58
2023-02-04T14:10:08.575Z,10.49
2023-02-04T14:13:18.667Z,10.33
2023-02-04T14:16:28.434Z,10.25
2023-02-04T14:19:38.157Z,10.15
2023-02-04T14:22:49.076Z,10.06
2023-02-04T14:25:59.045Z,9.90
2023-02-04T14:29:08.827Z,9.83
2023-02-04T14:32:18.477Z,9.76
2023-02-04T14:35:28.516Z,9.76
2023-02-04T14:38:39.688Z,9.72
2023-02-04T14:41:49.383Z,9.68
2023-02-04T14:44:59.546Z,9.56
2023-02-04T14:48:09.616Z,9.42
2023-02-04T14:51:22.328Z,9.30
2023-02-04T14:54:33.401Z,9.16
2023-02-04T14:57:45.606Z,9.13
2023-02-04T15:00:55.504Z,9.17
2023-02-04T15:04:05.529Z,9.11
2023-02-04T15:07:15.095Z,9.17
2023-02-04T15:10:26.118Z,9.24
2023-02-04T15:13:35.933Z,9.18
2023-02-04T15:16:48.780Z,9.11
2023-02-04T15:19:58.591Z,9.11
2023-02-04T15:23:08.355Z,8.99
2023-02-04T15:26:19.417Z,8.87
2023-02-04T15:29:29.100Z,8.82
2023-02-04T15:32:40.037Z,8.73
2023-02-04T15:35:49.825Z,8.64
2023-02-04T15:38:59.357Z,8.56
2023-02-04T15:42:10.852Z,8.39
2023-02-04T15:45:20.418Z,8.30
2023-02-04T15:48:30.367Z,8.19
2023-02-04T15:51:39.996Z,8.05
2023-02-04T15:54:49.639Z,7.92
2023-02-04T15:58:00.870Z,7.78
2023-02-04T16:01:10.780Z,7.70
2023-02-04T16:04:20.967Z,7.58
2023-02-04T16:07:30.811Z,7.50
2023-02-04T16:10:42.163Z,7.38
2023-02-04T16:13:53.428Z,7.27
2023-02-04T16:17:03.018Z,7.12
2023-02-04T16:20:13.529Z,6.99
2023-02-04T16:23:23.194Z,6.86
2023-02-04T16:26:33.168Z,6.70
2023-02-04T16:29:44.121Z,6.52
2023-02-04T16:32:53.758Z,6.34
2023-02-04T16:36:05.505Z,6.17
2023-02-04T16:39:15.226Z,5.94
2023-02-04T16:42:24.836Z,5.76
2023-02-04T16:45:36.039Z,5.72
2023-02-04T16:48:45.693Z,5.64
2023-02-04T16:51:55.870Z,5.52
2023-02-04T16:55:06.042Z,5.20
2023-02-04T16:58:16.891Z,5.12
2023-02-04T17:01:27.750Z,5.05
2023-02-04T17:04:37.537Z,5.00
2023-02-04T17:07:47.074Z,4.96
2023-02-04T17:11:07.805Z,4.84
2023-02-04T17:14:17.449Z,4.65
2023-02-04T17:17:28.408Z,4.55
2023-02-04T17:20:38.043Z,4.56
2023-02-04T17:23:47.941Z,4.55
2023-02-04T17:26:57.642Z,4.50
2023-02-04T17:30:08.197Z,4.37
2023-02-04T17:33:19.064Z,4.27
2023-02-04T17:36:29.365Z,4.24
2023-02-04T17:39:39.258Z,4.19
2023-02-04T17:42:48.978Z,4.12
2023-02-04T17:45:58.647Z,4.12
2023-02-04T17:49:10.007Z,4.09
2023-02-04T17:52:19.705Z,3.93
2023-02-04T17:55:31.538Z,3.93
2023-02-04T17:58:42.570Z,3.98
2023-02-04T18:01:55.325Z,3.88
2023-02-04T18:05:14.624Z,3.80
2023-02-04T18:08:27.028Z,3.81
2023-02-04T18:11:39.279Z,3.87
2023-02-04T18:14:48.964Z,3.87
2023-02-04T18:18:03.481Z,3.85
2023-02-04T18:21:20.889Z,3.79
2023-02-04T18:24:36.002Z,3.70
2023-02-04T18:27:46.329Z,3.57
2023-02-04T18:31:00.543Z,3.51
2023-02-04T18:34:20.988Z,3.44
2023-02-04T18:37:34.155Z,3.35
2023-02-04T18:40:43.789Z,3.29
2023-02-04T18:44:02.281Z,3.30
2023-02-04T18:47:29.435Z,3.29
2023-02-04T18:50:39.064Z,3.28
2023-02-04T18:53:50.092Z,3.20
2023-02-04T18:57:21.626Z,3.05
2023-02-04T19:00:34.438Z,3.08
2023-02-04T19:03:49.187Z,3.07
2023-02-04T19:06:59.528Z,3.14
2023-02-04T19:10:27.706Z,3.23
2023-02-04T19:13:40.144Z,3.28
2023-02-04T19:16:53.125Z,3.23
2023-02-04T19:20:07.151Z,3.14
2023-02-04T19:23:19.825Z,3.05
2023-02-04T19:26:35.128Z,3.01
2023-02-04T19:29:44.722Z,2.97
2023-02-04T19:32:57.411Z,2.95
2023-02-04T19:36:24.510Z,2.89
2023-02-04T19:39:38.527Z,2.66
2023-02-04T19:42:49.388Z,2.58
2023-02-04T19:45:59.873Z,2.59
2023-02-04T19:49:17.400Z,2.63
2023-02-04T19:52:34.705Z,2.62
2023-02-04T19:55:45.476Z,2.59
2023-02-04T19:58:57.762Z,2.55
2023-02-04T20:02:22.978Z,2.51
2023-02-04T20:05:33.901Z,2.44
2023-02-04T20:08:47.033Z,2.44
2023-02-04T20:11:59.373Z,2.42
2023-02-04T20:15:18.553Z,2.45
2023-02-04T20:18:28.775Z,2.38
2023-02-04T20:21:38.369Z,2.25
2023-02-04T20:24:50.335Z,2.13
2023-02-04T20:28:04.165Z,2.01
2023-02-04T20:31:24.766Z,1.95
2023-02-04T20:34:35.950Z,1.91
2023-02-04T20:37:52.226Z,1.90
2023-02-04T20:41:01.885Z,1.88
2023-02-04T20:44:16.321Z,1.79
2023-02-04T20:47:30.117Z,1.66
2023-02-04T20:50:44.204Z,1.62
2023-02-04T20:53:55.261Z,1.64
2023-02-04T20:57:18.188Z,1.53
2023-02-04T21:00:31.936Z,1.39
2023-02-04T21:03:44.041Z,1.30
2023-02-04T21:06:55.682Z,1.32
2023-02-04T21:10:05.994Z,1.29
2023-02-04T21:13:15.637Z,1.37
2023-02-04T21:16:25.289Z,1.37
2023-02-04T21:19:36.098Z,1.35
2023-02-04T21:22:45.977Z,1.29
2023-02-04T21:25:55.630Z,1.21
2023-02-04T21:29:05.246Z,1.16
2023-02-04T21:32:14.855Z,1.13
2023-02-04T21:35:26.099Z,1.12
2023-02-04T21:38:35.677Z,1.11
2023-02-04T21:41:45.404Z,1.10
2023-02-04T21:44:55.759Z,1.15
2023-02-04T21:48:07.736Z,1.18
2023-02-04T21:51:18.600Z,1.22
2023-02-04T21:54:28.275Z,1.18
2023-02-04T21:57:38.939Z,1.07
2023-02-04T22:00:48.618Z,0.98
2023-02-04T22:04:00.904Z,0.97
2023-02-04T22:07:11.941Z,1.02
2023-02-04T22:10:25.312Z,1.08
2023-02-04T22:13:35.600Z,1.00
2023-02-04T22:16:46.450Z,0.88
2023-02-04T22:19:56.225Z,0.80
2023-02-04T22:23:07.855Z,0.84
2023-02-04T22:26:18.621Z,0.84
2023-02-04T22:29:29.966Z,0.85
2023-02-04T22:32:40.198Z,0.79
2023-02-04T22:35:49.766Z,0.78
2023-02-04T22:39:00.769Z,0.90
2023-02-04T22:42:10.381Z,0.90
2023-02-04T22:45:20.112Z,0.92
2023-02-04T22:48:29.704Z,0.98
2023-02-04T22:51:39.384Z,1.01
2023-02-04T22:54:50.362Z,1.01
2023-02-04T22:58:00.047Z,0.99
2023-02-04T23:01:09.720Z,0.82
2023-02-04T23:04:19.448Z,0.90
2023-02-04T23:07:29.058Z,0.90
2023-02-04T23:10:40.104Z,0.91
2023-02-04T23:13:49.956Z,0.96
2023-02-04T23:17:00.180Z,1.03
2023-02-04T23:20:10.469Z,1.13
2023-02-04T23:23:20.315Z,1.15
2023-02-04T23:26:31.256Z,0.99
2023-02-04T23:29:41.482Z,1.07
2023-02-04T23:32:51.393Z,1.17
2023-02-04T23:36:01.206Z,1.24
2023-02-04T23:39:10.900Z,1.38
2023-02-04T23:42:21.850Z,1.52
2023-02-04T23:45:32.156Z,1.60
2023-02-04T23:48:42.222Z,1.73
2023-02-04T23:51:52.829Z,1.83
2023-02-04T23:55:02.495Z,1.88
2023-02-04T23:58:13.534Z,1.93
